createdAt,value
2019-05-15T00:00:40.256Z,68.30
2019-05-15T00:06:10.323Z,68.60
2019-05-15T00:11:39.784Z,68.50
2019-05-15T00:17:09.246Z,68.60
2019-05-15T00:22:39.066Z,68.70
2019-05-15T00:28:09.522Z,68.80
2019-05-15T00:33:39.627Z,69.00
2019-05-15T00:39:11.117Z,69.00
2019-05-15T00:44:42.549Z,69.20
2019-05-15T00:50:12.232Z,69.10
2019-05-15T00:55:41.629Z,69.40
2019-05-15T01:01:11.037Z,69.40
2019-05-15T01:06:40.634Z,70.30
2019-05-15T01:12:10.019Z,69.80
2019-05-15T01:17:40.460Z,69.90
2019-05-15T01:23:09.850Z,70.00
2019-05-15T01:28:39.247Z,70.30
2019-05-15T01:34:09.115Z,70.40
2019-05-15T01:39:38.677Z,70.60
2019-05-15T01:45:09.100Z,70.70
2019-05-15T01:50:39.672Z,71.40
2019-05-15T01:56:11.113Z,71.00
2019-05-15T02:01:40.522Z,71.10
2019-05-15T02:07:10.134Z,71.30
2019-05-15T02:12:39.539Z,71.50
2019-05-15T02:18:09.065Z,71.50
2019-05-15T02:23:38.912Z,71.70
2019-05-15T02:29:13.130Z,71.70
2019-05-15T02:34:39.876Z,71.90
2019-05-15T02:40:10.564Z,71.90
2019-05-15T02:45:42.000Z,72.10
2019-05-15T02:51:11.202Z,72.10
2019-05-15T02:56:40.562Z,72.20
2019-05-15T03:02:10.433Z,72.00
2019-05-15T03:07:40.803Z,72.20
2019-05-15T03:13:10.578Z,72.30
2019-05-15T03:18:40.733Z,72.40
2019-05-15T03:24:10.469Z,72.40
2019-05-15T03:29:40.549Z,73.10
2019-05-15T03:35:14.386Z,72.40
2019-05-15T03:40:41.762Z,72.60
2019-05-15T03:46:11.572Z,72.60
2019-05-15T03:51:45.732Z,72.70
2019-05-15T03:57:12.989Z,72.50
2019-05-15T04:02:42.521Z,72.70
2019-05-15T04:08:12.090Z,72.60
2019-05-15T04:13:42.535Z,72.50
2019-05-15T04:19:11.981Z,72.50
2019-05-15T04:24:41.775Z,72.60
2019-05-15T04:30:11.906Z,72.70
2019-05-15T04:35:41.301Z,72.50
2019-05-15T04:41:10.882Z,72.50
2019-05-15T04:46:40.299Z,72.50
2019-05-15T04:52:10.401Z,72.40
2019-05-15T04:57:40.873Z,72.40
2019-05-15T05:03:11.861Z,72.50
2019-05-15T05:08:41.391Z,72.60
2019-05-15T05:14:10.921Z,72.30
2019-05-15T05:19:40.411Z,72.30
2019-05-15T05:25:09.861Z,72.30
2019-05-15T05:30:39.328Z,72.10
2019-05-15T05:36:08.836Z,72.90
2019-05-15T05:41:39.177Z,71.80
2019-05-15T05:47:09.293Z,71.90
2019-05-15T05:52:40.003Z,71.90
2019-05-15T05:58:09.565Z,71.90
2019-05-15T06:03:39.060Z,71.80
2019-05-15T06:09:18.213Z,71.70
2019-05-15T06:14:48.471Z,71.60
2019-05-15T06:20:18.634Z,71.30
2019-05-15T06:25:48.635Z,71.50
2019-05-15T06:31:19.104Z,71.30
2019-05-15T06:36:48.795Z,71.50
2019-05-15T06:42:18.765Z,71.30
2019-05-15T06:47:48.364Z,71.40
2019-05-15T06:53:19.243Z,71.20
2019-05-15T06:58:49.006Z,71.30
2019-05-15T07:04:18.471Z,71.10
2019-05-15T07:09:48.645Z,71.50
2019-05-15T07:15:18.988Z,72.90
2019-05-15T07:20:49.222Z,71.60
2019-05-15T07:26:18.663Z,71.40
2019-05-15T07:31:48.052Z,71.20
2019-05-15T07:37:19.038Z,71.00
2019-05-15T07:42:49.182Z,70.80
2019-05-15T07:48:19.062Z,70.90
2019-05-15T07:53:49.196Z,70.60
2019-05-15T07:59:18.930Z,70.30
2019-05-15T08:04:48.466Z,70.20
2019-05-15T08:10:18.830Z,70.30
2019-05-15T08:15:48.961Z,70.40
2019-05-15T08:21:18.714Z,70.80
2019-05-15T08:26:48.772Z,70.40
2019-05-15T08:32:19.049Z,70.30
2019-05-15T08:37:49.182Z,70.50
2019-05-15T08:43:18.954Z,70.00
2019-05-15T08:48:49.170Z,69.80
2019-05-15T08:54:21.493Z,69.60
2019-05-15T08:59:50.795Z,69.20
2019-05-15T09:05:20.510Z,69.00
2019-05-15T09:10:50.565Z,68.70
2019-05-15T09:16:20.087Z,67.70
2019-05-15T09:21:49.936Z,67.60
2019-05-15T09:27:19.324Z,67.10
2019-05-15T09:32:53.615Z,66.60
2019-05-15T09:38:22.957Z,66.40
2019-05-15T09:43:53.246Z,66.40
2019-05-15T09:49:23.100Z,66.00
2019-05-15T09:54:52.728Z,65.30
2019-05-15T10:00:23.011Z,65.10
2019-05-15T10:05:52.466Z,64.50
2019-05-15T10:11:21.853Z,64.50
2019-05-15T10:16:51.577Z,64.50
2019-05-15T10:22:21.013Z,64.20
2019-05-15T10:27:50.415Z,63.70
2019-05-15T10:33:20.608Z,63.10
2019-05-15T10:38:50.171Z,63.00
2019-05-15T10:44:21.726Z,62.40
2019-05-15T10:49:50.753Z,62.20
2019-05-15T10:55:20.163Z,61.50
2019-05-15T11:00:49.813Z,61.50
2019-05-15T11:06:19.375Z,60.70
2019-05-15T11:11:51.579Z,59.20
2019-05-15T11:17:20.252Z,57.90
2019-05-15T11:22:50.196Z,58.10
2019-05-15T11:28:19.662Z,57.90
2019-05-15T11:33:49.409Z,58.50
2019-05-15T11:39:18.787Z,58.30
2019-05-15T11:44:48.481Z,57.50
2019-05-15T11:50:20.501Z,57.40
2019-05-15T11:55:50.074Z,57.60
2019-05-15T12:01:19.792Z,57.80
2019-05-15T12:06:58.737Z,57.10
2019-05-15T12:12:20.431Z,57.60
2019-05-15T12:17:49.837Z,57.00
2019-05-15T12:23:19.243Z,57.40
2019-05-15T12:28:49.094Z,57.20
2019-05-15T12:34:19.098Z,57.40
2019-05-15T12:39:49.271Z,58.30
2019-05-15T13:01:52.529Z,57.10
2019-05-15T13:07:23.455Z,56.80
2019-05-15T13:13:00.910Z,56.60
2019-05-15T13:18:24.530Z,56.80
2019-05-15T13:23:53.927Z,57.50
2019-05-15T13:29:23.407Z,57.80
2019-05-15T13:34:52.922Z,57.80
2019-05-15T13:40:37.607Z,57.80
2019-05-15T13:46:00.519Z,57.50
2019-05-15T13:51:29.945Z,57.60
2019-05-15T13:56:59.278Z,58.00
2019-05-15T14:02:28.596Z,57.80
2019-05-15T14:07:58.392Z,57.80
2019-05-15T14:13:28.642Z,57.90
2019-05-15T14:18:58.830Z,58.20
2019-05-15T14:24:28.549Z,57.90
2019-05-15T14:29:58.226Z,58.00
2019-05-15T14:35:27.466Z,58.10
2019-05-15T14:40:58.981Z,58.10
2019-05-15T14:46:28.267Z,57.90
2019-05-15T14:52:08.491Z,57.80
2019-05-15T14:57:32.996Z,58.00
2019-05-15T15:03:02.422Z,58.00
2019-05-15T15:08:32.780Z,58.30
2019-05-15T15:14:02.475Z,58.00
2019-05-15T15:19:32.094Z,58.20
2019-05-15T15:25:09.918Z,57.90
2019-05-15T15:30:38.707Z,57.80
2019-05-15T15:36:09.563Z,58.40
2019-05-15T15:41:39.193Z,58.00
2019-05-15T15:47:08.873Z,57.90
2019-05-15T15:52:38.831Z,58.20
2019-05-15T15:58:10.277Z,57.70
2019-05-15T16:03:40.183Z,57.80
2019-05-15T16:09:09.911Z,57.90
2019-05-15T16:14:39.456Z,58.40
2019-05-15T16:20:10.794Z,58.10
2019-05-15T16:25:40.243Z,58.00
2019-05-15T16:31:09.775Z,58.40
2019-05-15T16:36:41.055Z,58.20
2019-05-15T16:42:10.627Z,58.20
2019-05-15T16:47:40.294Z,58.40
2019-05-15T16:53:11.432Z,58.40
2019-05-15T16:58:41.622Z,58.40
2019-05-15T17:04:11.234Z,58.80
2019-05-15T17:09:41.937Z,59.10
2019-05-15T17:15:11.674Z,58.80
2019-05-15T17:20:41.096Z,59.00
2019-05-15T17:26:10.796Z,59.20
2019-05-15T17:31:40.295Z,59.00
2019-05-15T17:37:09.668Z,59.10
2019-05-15T17:42:39.334Z,59.10
2019-05-15T17:48:12.329Z,59.30
2019-05-15T17:53:42.180Z,59.50
2019-05-15T17:59:12.155Z,59.50
2019-05-15T18:04:41.999Z,59.60
2019-05-15T18:10:13.032Z,59.80
2019-05-15T18:15:44.231Z,59.90
2019-05-15T18:21:15.264Z,60.10
2019-05-15T18:26:49.129Z,60.60
2019-05-15T18:32:19.010Z,60.60
2019-05-15T18:37:49.158Z,60.70
2019-05-15T18:43:19.058Z,61.00
2019-05-15T18:48:49.088Z,61.00
2019-05-15T18:54:21.607Z,61.20
2019-05-15T19:00:08.793Z,61.30
2019-05-15T19:05:43.091Z,61.70
2019-05-15T19:11:12.630Z,61.90
2019-05-15T19:16:41.906Z,62.70
2019-05-15T19:22:12.264Z,62.20
2019-05-15T19:27:41.620Z,62.60
2019-05-15T19:33:13.199Z,62.60
2019-05-15T19:38:42.479Z,62.80
2019-05-15T19:44:11.826Z,63.20
2019-05-15T19:49:41.180Z,63.50
2019-05-15T19:55:11.686Z,63.90
2019-05-15T20:00:41.079Z,64.20
2019-05-15T20:06:11.773Z,64.30
2019-05-15T20:11:41.135Z,64.70
2019-05-15T20:17:10.407Z,64.70
2019-05-15T20:22:41.845Z,64.90
2019-05-15T20:28:10.877Z,64.90
2019-05-15T20:33:40.140Z,65.40
2019-05-15T20:39:11.297Z,65.30
2019-05-15T20:44:40.573Z,65.80
2019-05-15T20:50:11.230Z,65.90
2019-05-15T20:55:40.577Z,66.00
2019-05-15T21:01:09.851Z,66.40
2019-05-15T21:06:39.199Z,66.60
2019-05-15T21:12:09.836Z,66.90
2019-05-15T21:17:40.898Z,67.10
2019-05-15T21:23:10.323Z,67.20
2019-05-15T21:28:40.568Z,67.30
2019-05-15T21:34:10.010Z,67.40
2019-05-15T21:39:39.338Z,67.60
2019-05-15T21:45:14.888Z,67.80
2019-05-15T21:50:42.688Z,68.10
2019-05-15T21:56:13.601Z,68.30
2019-05-15T22:01:43.050Z,68.60
2019-05-15T22:07:13.579Z,69.00
2019-05-15T22:12:42.858Z,69.30
2019-05-15T22:18:12.144Z,69.50
2019-05-15T22:23:41.393Z,69.70
2019-05-15T22:29:10.671Z,69.80
2019-05-15T22:34:39.946Z,69.90
2019-05-15T22:40:09.425Z,69.90
2019-05-15T22:45:38.706Z,70.20
2019-05-15T22:51:07.973Z,70.20
2019-05-15T22:56:37.835Z,70.30
2019-05-15T23:02:09.242Z,70.40
2019-05-15T23:07:38.976Z,70.60
2019-05-15T23:13:10.423Z,70.70
2019-05-15T23:18:39.677Z,71.00
2019-05-15T23:24:09.875Z,71.10
2019-05-15T23:29:39.134Z,71.30
2019-05-15T23:35:08.658Z,71.40
2019-05-15T23:40:38.862Z,71.30
2019-05-15T23:46:08.158Z,71.40
2019-05-15T23:51:39.341Z,71.40
2019-05-15T23:57:09.068Z,71.40
